No particular awareness of the weather is required.    There are no Weather-warnings


Meteo18 Weather Cam more information Meteo18 Weather Cam


Thunder radar more information blitzortung!


Rain radar more information rain snow radar


Visit our other weather sites:

Template documentation
and downloads

And another site



Weather Underground History page Text

Daily Summary for September 3, 2017 Units:  Both    English   Metric
« Previous Day
Next Day »
Daily Weekly Monthly Yearly Custom
  High: Low: Average:
Temperature: 72.7 °F /  22.6 °C 46 °F /  7.8 °C 60.4 °F /  15.8 °C
Dew Point: 54 °F /  12.2 °C 43.5 °F /  6.4 °C 48 °F /  8.9 °C
Humidity: 96 % 38 % 68 %
Wind Speed: 9 mph /  14.5 km/h - 0.9 mph /  1.5 km/h
Wind Gust: 12 mph /  19.3 km/h - -
Wind:- - SSW
Pressure: 30.2 in /  1021.9 hPa 29.9 in /  1013.8 hPa -
Precipitation: 0 in /  0.0 mm    
Historical Graphs
 
 
Tabular Data for September 3, 2017
Time Temperature Dew Point Pressure Wind Wind Speed Wind Gust Humidity Rainfall Rate (Hourly)
00:02 54.7 °F /  12.6 °C 49.3 °F /  9.6 °C 30.2 in /  1021.9 hPa Calm     82 % 0 in /  0.0 mm
00:07 54.3 °F /  12.4 °C 48.9 °F /  9.4 °C 30.2 in /  1021.9 hPa Calm     82 % 0 in /  0.0 mm
00:12 54.7 °F /  12.6 °C 48.9 °F /  9.4 °C 30.2 in /  1021.6 hPa Calm     81 % 0 in /  0.0 mm
00:17 54.9 °F /  12.7 °C 48.7 °F /  9.3 °C 30.2 in /  1021.6 hPa Calm     80 % 0 in /  0.0 mm
00:22 54.7 °F /  12.6 °C 48.9 °F /  9.4 °C 30.2 in /  1021.6 hPa Calm     81 % 0 in /  0.0 mm
00:27 54.3 °F /  12.4 °C 48.6 °F /  9.2 °C 30.2 in /  1021.6 hPa Calm     81 % 0 in /  0.0 mm
00:32 54 °F /  12.2 °C 48.6 °F /  9.2 °C 30.2 in /  1021.6 hPa Calm     82 % 0 in /  0.0 mm
00:42 53.1 °F /  11.7 °C 48.4 °F /  9.1 °C 30.2 in /  1021.6 hPa Calm     84 % 0 in /  0.0 mm
00:47 52.9 °F /  11.6 °C 48.6 °F /  9.2 °C 30.2 in /  1021.6 hPa Calm     85 % 0 in /  0.0 mm
00:52 52.7 °F /  11.5 °C 48.4 °F /  9.1 °C 30.2 in /  1021.6 hPa Calm     85 % 0 in /  0.0 mm
01:02 52.3 °F /  11.3 °C 48.2 °F /  9.0 °C 30.2 in /  1021.6 hPa Calm     86 % 0 in /  0.0 mm
01:07 52.3 °F /  11.3 °C 48.6 °F /  9.2 °C 30.2 in /  1021.6 hPa Calm     87 % 0 in /  0.0 mm
01:12 52.5 °F /  11.4 °C 48.4 °F /  9.1 °C 30.2 in /  1021.6 hPa Calm     86 % 0 in /  0.0 mm
01:17 52.9 °F /  11.6 °C 48.7 °F /  9.3 °C 30.2 in /  1021.2 hPa Calm     86 % 0 in /  0.0 mm
01:22 52.7 °F /  11.5 °C 48.9 °F /  9.4 °C 30.2 in /  1021.2 hPa Calm     87 % 0 in /  0.0 mm
01:27 52.7 °F /  11.5 °C 48.9 °F /  9.4 °C 30.2 in /  1021.2 hPa North 1 mph /  1.6 km/h   87 % 0 in /  0.0 mm
01:32 52.7 °F /  11.5 °C 48.9 °F /  9.4 °C 30.2 in /  1021.2 hPa NNE 1 mph /  1.6 km/h 2 mph /  3.2 km/h 87 % 0 in /  0.0 mm
01:37 52.5 °F /  11.4 °C 48.7 °F /  9.3 °C 30.2 in /  1021.2 hPa NNE 1 mph /  1.6 km/h 2 mph /  3.2 km/h 87 % 0 in /  0.0 mm
01:42 52.3 °F /  11.3 °C 48.9 °F /  9.4 °C 30.2 in /  1021.2 hPa North 1 mph /  1.6 km/h 2 mph /  3.2 km/h 88 % 0 in /  0.0 mm
01:47 52.2 °F /  11.2 °C 48.7 °F /  9.3 °C 30.2 in /  1021.2 hPa North 1 mph /  1.6 km/h 3 mph /  4.8 km/h 88 % 0 in /  0.0 mm
01:52 52.2 °F /  11.2 °C 48.7 °F /  9.3 °C 30.2 in /  1021.2 hPa Calm   3 mph /  4.8 km/h 88 % 0 in /  0.0 mm
01:57 52.2 °F /  11.2 °C 48.4 °F /  9.1 °C 30.2 in /  1021.2 hPa Calm   2 mph /  3.2 km/h 87 % 0 in /  0.0 mm
02:02 51.8 °F /  11.0 °C 48 °F /  8.9 °C 30.2 in /  1020.9 hPa WNW 1 mph /  1.6 km/h 2 mph /  3.2 km/h 87 % 0 in /  0.0 mm
02:07 51.6 °F /  10.9 °C 48.2 °F /  9.0 °C 30.2 in /  1020.9 hPa Calm   2 mph /  3.2 km/h 88 % 0 in /  0.0 mm
02:12 51.3 °F /  10.7 °C 47.8 °F /  8.8 °C 30.2 in /  1020.9 hPa Calm   2 mph /  3.2 km/h 88 % 0 in /  0.0 mm
02:17 51.1 °F /  10.6 °C 48 °F /  8.9 °C 30.2 in /  1020.9 hPa Calm   2 mph /  3.2 km/h 89 % 0 in /  0.0 mm
02:22 50.7 °F /  10.4 °C 47.7 °F /  8.7 °C 30.2 in /  1021.2 hPa Calm   1 mph /  1.6 km/h 89 % 0 in /  0.0 mm
02:32 50.9 °F /  10.5 °C 48 °F /  8.9 °C 30.2 in /  1020.9 hPa Calm     90 % 0 in /  0.0 mm
02:37 50.7 °F /  10.4 °C 47.7 °F /  8.7 °C 30.2 in /  1020.9 hPa Calm     89 % 0 in /  0.0 mm
02:42 50.4 °F /  10.2 °C 47.3 °F /  8.5 °C 30.1 in /  1020.5 hPa Calm     89 % 0 in /  0.0 mm
02:47 49.6 °F /  9.8 °C 46.8 °F /  8.2 °C 30.1 in /  1020.5 hPa Calm     90 % 0 in /  0.0 mm
02:52 49.8 °F /  9.9 °C 47.3 °F /  8.5 °C 30.1 in /  1020.5 hPa Calm     91 % 0 in /  0.0 mm
03:02 50.2 °F /  10.1 °C 48 °F /  8.9 °C 30.1 in /  1020.5 hPa Calm     92 % 0 in /  0.0 mm
03:07 50.2 °F /  10.1 °C 47.7 °F /  8.7 °C 30.1 in /  1020.5 hPa Calm     91 % 0 in /  0.0 mm
03:12 49.5 °F /  9.7 °C 46.9 °F /  8.3 °C 30.1 in /  1020.5 hPa Calm     91 % 0 in /  0.0 mm
03:17 49.3 °F /  9.6 °C 46.8 °F /  8.2 °C 30.1 in /  1020.5 hPa Calm     91 % 0 in /  0.0 mm
03:22 49.1 °F /  9.5 °C 46.9 °F /  8.3 °C 30.1 in /  1020.5 hPa Calm     92 % 0 in /  0.0 mm
03:27 49.3 °F /  9.6 °C 47.1 °F /  8.4 °C 30.1 in /  1020.5 hPa Calm     92 % 0 in /  0.0 mm
03:32 49.5 °F /  9.7 °C 47.3 °F /  8.5 °C 30.1 in /  1020.5 hPa Calm     92 % 0 in /  0.0 mm
03:37 49.6 °F /  9.8 °C 47.5 °F /  8.6 °C 30.1 in /  1020.2 hPa Calm     92 % 0 in /  0.0 mm
03:42 49.5 °F /  9.7 °C 47.3 °F /  8.5 °C 30.1 in /  1020.2 hPa Calm     92 % 0 in /  0.0 mm
03:47 49.5 °F /  9.7 °C 47.3 °F /  8.5 °C 30.1 in /  1020.2 hPa Calm     92 % 0 in /  0.0 mm
03:52 48.7 °F /  9.3 °C 46.2 °F /  7.9 °C 30.1 in /  1020.2 hPa Calm     91 % 0 in /  0.0 mm
03:57 48.6 °F /  9.2 °C 46.4 °F /  8.0 °C 30.1 in /  1020.2 hPa Calm     92 % 0 in /  0.0 mm
04:02 48.4 °F /  9.1 °C 46.2 °F /  7.9 °C 30.1 in /  1020.2 hPa Calm     92 % 0 in /  0.0 mm
04:07 48.6 °F /  9.2 °C 46.6 °F /  8.1 °C 30.1 in /  1019.9 hPa Calm     93 % 0 in /  0.0 mm
04:12 48.6 °F /  9.2 °C 46.6 °F /  8.1 °C 30.1 in /  1019.9 hPa Calm     93 % 0 in /  0.0 mm
04:17 48.4 °F /  9.1 °C 46.2 °F /  7.9 °C 30.1 in /  1019.9 hPa Calm     92 % 0 in /  0.0 mm
04:22 48.4 °F /  9.1 °C 46.4 °F /  8.0 °C 30.1 in /  1019.9 hPa Calm     93 % 0 in /  0.0 mm
04:27 48.2 °F /  9.0 °C 46.2 °F /  7.9 °C 30.1 in /  1019.9 hPa Calm     93 % 0 in /  0.0 mm
04:32 48 °F /  8.9 °C 46 °F /  7.8 °C 30.1 in /  1019.9 hPa Calm     93 % 0 in /  0.0 mm
04:37 48.4 °F /  9.1 °C 46.4 °F /  8.0 °C 30.1 in /  1019.9 hPa Calm     93 % 0 in /  0.0 mm
04:42 48.4 °F /  9.1 °C 46.4 °F /  8.0 °C 30.1 in /  1019.9 hPa Calm     93 % 0 in /  0.0 mm
04:47 48.4 °F /  9.1 °C 46.4 °F /  8.0 °C 30.1 in /  1019.9 hPa Calm     93 % 0 in /  0.0 mm
04:52 48.4 °F /  9.1 °C 46.4 °F /  8.0 °C 30.1 in /  1019.9 hPa Calm     93 % 0 in /  0.0 mm
04:57 48.2 °F /  9.0 °C 46.2 °F /  7.9 °C 30.1 in /  1019.9 hPa Calm     93 % 0 in /  0.0 mm
05:02 48 °F /  8.9 °C 46 °F /  7.8 °C 30.1 in /  1019.9 hPa Calm     93 % 0 in /  0.0 mm
05:07 47.8 °F /  8.8 °C 45.9 °F /  7.7 °C 30.1 in /  1019.9 hPa Calm     93 % 0 in /  0.0 mm
05:12 47.7 °F /  8.7 °C 45.7 °F /  7.6 °C 30.1 in /  1019.9 hPa Calm     93 % 0 in /  0.0 mm
05:22 47.5 °F /  8.6 °C 45.5 °F /  7.5 °C 30.1 in /  1019.9 hPa Calm     93 % 0 in /  0.0 mm
05:27 47.5 °F /  8.6 °C 45.5 °F /  7.5 °C 30.1 in /  1019.9 hPa Calm     93 % 0 in /  0.0 mm
05:32 47.5 °F /  8.6 °C 45.9 °F /  7.7 °C 30.1 in /  1019.9 hPa Calm     94 % 0 in /  0.0 mm
05:37 47.5 °F /  8.6 °C 45.9 °F /  7.7 °C 30.1 in /  1019.5 hPa Calm     94 % 0 in /  0.0 mm
05:42 47.5 °F /  8.6 °C 45.9 °F /  7.7 °C 30.1 in /  1019.5 hPa Calm     94 % 0 in /  0.0 mm
05:47 47.3 °F /  8.5 °C 45.7 °F /  7.6 °C 30.1 in /  1019.5 hPa Calm     94 % 0 in /  0.0 mm
05:52 46.9 °F /  8.3 °C 45 °F /  7.2 °C 30.1 in /  1019.5 hPa Calm     93 % 0 in /  0.0 mm
05:57 46.9 °F /  8.3 °C 45.3 °F /  7.4 °C 30.1 in /  1019.5 hPa Calm     94 % 0 in /  0.0 mm
06:02 46.8 °F /  8.2 °C 45.1 °F /  7.3 °C 30.1 in /  1019.5 hPa Calm     94 % 0 in /  0.0 mm
06:07 46.8 °F /  8.2 °C 45.1 °F /  7.3 °C 30.1 in /  1019.5 hPa Calm     94 % 0 in /  0.0 mm
06:12 46.9 °F /  8.3 °C 45.3 °F /  7.4 °C 30.1 in /  1019.5 hPa Calm     94 % 0 in /  0.0 mm
06:17 46.6 °F /  8.1 °C 45 °F /  7.2 °C 30.1 in /  1019.2 hPa Calm     94 % 0 in /  0.0 mm
06:22 46.6 °F /  8.1 °C 45 °F /  7.2 °C 30.1 in /  1019.2 hPa Calm     94 % 0 in /  0.0 mm
06:27 46.4 °F /  8.0 °C 44.8 °F /  7.1 °C 30.1 in /  1019.2 hPa Calm     94 % 0 in /  0.0 mm
06:32 46.6 °F /  8.1 °C 45.1 °F /  7.3 °C 30.1 in /  1019.2 hPa Calm     95 % 0 in /  0.0 mm
06:42 46.6 °F /  8.1 °C 45.1 °F /  7.3 °C 30.1 in /  1019.2 hPa Calm     95 % 0 in /  0.0 mm
06:47 46.6 °F /  8.1 °C 45.1 °F /  7.3 °C 30.1 in /  1019.2 hPa Calm     95 % 0 in /  0.0 mm
06:52 46.2 °F /  7.9 °C 44.6 °F /  7.0 °C 30.1 in /  1019.2 hPa Calm     94 % 0 in /  0.0 mm
07:02 46 °F /  7.8 °C 44.6 °F /  7.0 °C 30.1 in /  1019.2 hPa Calm     95 % 0 in /  0.0 mm
07:07 46 °F /  7.8 °C 44.6 °F /  7.0 °C 30.1 in /  1019.2 hPa Calm     95 % 0 in /  0.0 mm
07:12 46 °F /  7.8 °C 44.6 °F /  7.0 °C 30.1 in /  1019.2 hPa Calm     95 % 0 in /  0.0 mm
07:17 46 °F /  7.8 °C 44.6 °F /  7.0 °C 30.1 in /  1019.2 hPa Calm     95 % 0 in /  0.0 mm
07:22 46 °F /  7.8 °C 44.6 °F /  7.0 °C 30.1 in /  1019.2 hPa Calm     95 % 0 in /  0.0 mm
07:27 46 °F /  7.8 °C 44.6 °F /  7.0 °C 30.1 in /  1019.2 hPa Calm     95 % 0 in /  0.0 mm
07:32 46.2 °F /  7.9 °C 44.8 °F /  7.1 °C 30.1 in /  1019.2 hPa Calm     95 % 0 in /  0.0 mm
07:37 46.4 °F /  8.0 °C 45 °F /  7.2 °C 30.1 in /  1019.2 hPa Calm     95 % 0 in /  0.0 mm
07:42 46.6 °F /  8.1 °C 45.1 °F /  7.3 °C 30.1 in /  1019.2 hPa Calm     95 % 0 in /  0.0 mm
07:47 46.8 °F /  8.2 °C 45.3 °F /  7.4 °C 30.1 in /  1019.2 hPa Calm     95 % 0 in /  0.0 mm
07:52 46.9 °F /  8.3 °C 45.5 °F /  7.5 °C 30.1 in /  1019.2 hPa Calm     95 % 0 in /  0.0 mm
07:57 46.8 °F /  8.2 °C 45.3 °F /  7.4 °C 30.1 in /  1019.2 hPa Calm     95 % 0 in /  0.0 mm
08:02 46.9 °F /  8.3 °C 45.5 °F /  7.5 °C 30.1 in /  1019.2 hPa Calm     95 % 0 in /  0.0 mm
08:07 47.5 °F /  8.6 °C 46 °F /  7.8 °C 30.1 in /  1019.2 hPa Calm     95 % 0 in /  0.0 mm
08:12 48.4 °F /  9.1 °C 47.3 °F /  8.5 °C 30.1 in /  1019.2 hPa Calm     96 % 0 in /  0.0 mm
08:17 49.5 °F /  9.7 °C 48.4 °F /  9.1 °C 30.1 in /  1019.2 hPa Calm     96 % 0 in /  0.0 mm
08:22 50.4 °F /  10.2 °C 49.3 °F /  9.6 °C 30.1 in /  1019.2 hPa Calm     96 % 0 in /  0.0 mm
08:32 51.6 °F /  10.9 °C 50.2 °F /  10.1 °C 30.1 in /  1018.8 hPa Calm     95 % 0 in /  0.0 mm
08:37 52.5 °F /  11.4 °C 51.1 °F /  10.6 °C 30.1 in /  1018.8 hPa Calm     95 % 0 in /  0.0 mm
08:42 53.1 °F /  11.7 °C 51.1 °F /  10.6 °C 30.1 in /  1018.8 hPa Calm     93 % 0 in /  0.0 mm
08:47 53.8 °F /  12.1 °C 51.4 °F /  10.8 °C 30.1 in /  1018.8 hPa Calm     92 % 0 in /  0.0 mm
08:57 53.8 °F /  12.1 °C 50.5 °F /  10.3 °C 30.1 in /  1018.8 hPa Calm   2 mph /  3.2 km/h 89 % 0 in /  0.0 mm
09:02 53.4 °F /  11.9 °C 50 °F /  10.0 °C 30.1 in /  1018.8 hPa Calm   2 mph /  3.2 km/h 88 % 0 in /  0.0 mm
09:12 53.2 °F /  11.8 °C 49.8 °F /  9.9 °C 30.1 in /  1018.8 hPa Calm   2 mph /  3.2 km/h 88 % 0 in /  0.0 mm
09:17 53.4 °F /  11.9 °C 50.2 °F /  10.1 °C 30.1 in /  1018.8 hPa Calm   2 mph /  3.2 km/h 89 % 0 in /  0.0 mm
09:22 53.4 °F /  11.9 °C 50 °F /  10.0 °C 30.1 in /  1018.8 hPa Calm   2 mph /  3.2 km/h 88 % 0 in /  0.0 mm
09:27 53.6 °F /  12.0 °C 50.2 °F /  10.1 °C 30.1 in /  1018.8 hPa Calm   2 mph /  3.2 km/h 88 % 0 in /  0.0 mm
09:32 54 °F /  12.2 °C 50.5 °F /  10.3 °C 30.1 in /  1018.8 hPa Calm   2 mph /  3.2 km/h 88 % 0 in /  0.0 mm
09:42 55.4 °F /  13.0 °C 51.3 °F /  10.7 °C 30.1 in /  1018.8 hPa Calm     86 % 0 in /  0.0 mm
09:47 56.1 °F /  13.4 °C 52 °F /  11.1 °C 30.1 in /  1018.8 hPa Calm     86 % 0 in /  0.0 mm
09:57 57.2 °F /  14.0 °C 51.8 °F /  11.0 °C 30.1 in /  1018.8 hPa Calm   2 mph /  3.2 km/h 82 % 0 in /  0.0 mm
10:02 57.9 °F /  14.4 °C 52.5 °F /  11.4 °C 30.1 in /  1018.8 hPa ESE 2 mph /  3.2 km/h 2 mph /  3.2 km/h 82 % 0 in /  0.0 mm
10:07 58.6 °F /  14.8 °C 52.9 °F /  11.6 °C 30.1 in /  1018.8 hPa Calm   2 mph /  3.2 km/h 81 % 0 in /  0.0 mm
10:12 59.2 °F /  15.1 °C 52.7 °F /  11.5 °C 30.1 in /  1018.8 hPa Calm   2 mph /  3.2 km/h 79 % 0 in /  0.0 mm
10:17 59.4 °F /  15.2 °C 52.5 °F /  11.4 °C 30.1 in /  1018.8 hPa ESE 1 mph /  1.6 km/h 2 mph /  3.2 km/h 78 % 0 in /  0.0 mm
10:22 59.2 °F /  15.1 °C 52.7 °F /  11.5 °C 30.1 in /  1018.8 hPa Calm   3 mph /  4.8 km/h 79 % 0 in /  0.0 mm
10:27 59.4 °F /  15.2 °C 52.5 °F /  11.4 °C 30.1 in /  1018.8 hPa Calm   3 mph /  4.8 km/h 78 % 0 in /  0.0 mm
10:32 59.2 °F /  15.1 °C 52.3 °F /  11.3 °C 30.1 in /  1018.5 hPa SE 1 mph /  1.6 km/h 3 mph /  4.8 km/h 78 % 0 in /  0.0 mm
10:37 59.2 °F /  15.1 °C 52.7 °F /  11.5 °C 30.1 in /  1018.5 hPa SE 1 mph /  1.6 km/h 3 mph /  4.8 km/h 79 % 0 in /  0.0 mm
10:42 60.1 °F /  15.6 °C 53.2 °F /  11.8 °C 30.1 in /  1018.5 hPa Calm   3 mph /  4.8 km/h 78 % 0 in /  0.0 mm
10:47 60.4 °F /  15.8 °C 53.6 °F /  12.0 °C 30.1 in /  1018.5 hPa Calm   3 mph /  4.8 km/h 78 % 0 in /  0.0 mm
10:52 61 °F /  16.1 °C 53.4 °F /  11.9 °C 30.1 in /  1018.5 hPa ESE 2 mph /  3.2 km/h 2 mph /  3.2 km/h 76 % 0 in /  0.0 mm
10:57 61 °F /  16.1 °C 53.4 °F /  11.9 °C 30.1 in /  1018.5 hPa Calm   3 mph /  4.8 km/h 76 % 0 in /  0.0 mm
11:02 61.3 °F /  16.3 °C 53.8 °F /  12.1 °C 30.1 in /  1018.5 hPa ENE 1 mph /  1.6 km/h 3 mph /  4.8 km/h 76 % 0 in /  0.0 mm
11:07 62.2 °F /  16.8 °C 53.8 °F /  12.1 °C 30.1 in /  1018.5 hPa WSW 1 mph /  1.6 km/h 3 mph /  4.8 km/h 74 % 0 in /  0.0 mm
11:12 63 °F /  17.2 °C 53.8 °F /  12.1 °C 30.1 in /  1018.2 hPa East 2 mph /  3.2 km/h 3 mph /  4.8 km/h 72 % 0 in /  0.0 mm
11:17 62.8 °F /  17.1 °C 53.2 °F /  11.8 °C 30.1 in /  1018.5 hPa ENE 1 mph /  1.6 km/h 3 mph /  4.8 km/h 71 % 0 in /  0.0 mm
11:22 62.8 °F /  17.1 °C 53.6 °F /  12.0 °C 30.1 in /  1018.2 hPa East 3 mph /  4.8 km/h 5 mph /  8.0 km/h 72 % 0 in /  0.0 mm
11:27 63.9 °F /  17.7 °C 54 °F /  12.2 °C 30.1 in /  1018.2 hPa SSW 2 mph /  3.2 km/h 5 mph /  8.0 km/h 70 % 0 in /  0.0 mm
11:32 64.4 °F /  18.0 °C 54 °F /  12.2 °C 30.1 in /  1018.2 hPa ENE 1 mph /  1.6 km/h 5 mph /  8.0 km/h 69 % 0 in /  0.0 mm
11:37 64.9 °F /  18.3 °C 53.2 °F /  11.8 °C 30.1 in /  1018.2 hPa WSW 1 mph /  1.6 km/h 3 mph /  4.8 km/h 66 % 0 in /  0.0 mm
11:42 65.5 °F /  18.6 °C 53.4 °F /  11.9 °C 30.1 in /  1017.8 hPa SW 2 mph /  3.2 km/h 3 mph /  4.8 km/h 65 % 0 in /  0.0 mm
11:47 66 °F /  18.9 °C 54 °F /  12.2 °C 30.1 in /  1017.8 hPa ESE 1 mph /  1.6 km/h 3 mph /  4.8 km/h 65 % 0 in /  0.0 mm
11:57 66.7 °F /  19.3 °C 53.8 °F /  12.1 °C 30.1 in /  1017.8 hPa ENE 2 mph /  3.2 km/h 5 mph /  8.0 km/h 63 % 0 in /  0.0 mm
12:02 66.4 °F /  19.1 °C 53.4 °F /  11.9 °C 30.1 in /  1017.8 hPa SSE 1 mph /  1.6 km/h 5 mph /  8.0 km/h 63 % 0 in /  0.0 mm
12:07 66.7 °F /  19.3 °C 51.4 °F /  10.8 °C 30.1 in /  1017.8 hPa SW 1 mph /  1.6 km/h 8 mph /  12.9 km/h 58 % 0 in /  0.0 mm
12:12 67.3 °F /  19.6 °C 52.5 °F /  11.4 °C 30.1 in /  1017.8 hPa SSE 2 mph /  3.2 km/h 8 mph /  12.9 km/h 59 % 0 in /  0.0 mm
12:17 67.8 °F /  19.9 °C 52 °F /  11.1 °C 30.1 in /  1017.8 hPa SW 6 mph /  9.7 km/h 8 mph /  12.9 km/h 57 % 0 in /  0.0 mm
12:22 67.3 °F /  19.6 °C 50.5 °F /  10.3 °C 30.1 in /  1017.8 hPa SSW 3 mph /  4.8 km/h 9 mph /  14.5 km/h 55 % 0 in /  0.0 mm
12:27 67.3 °F /  19.6 °C 51.1 °F /  10.6 °C 30.1 in /  1017.8 hPa Calm   9 mph /  14.5 km/h 56 % 0 in /  0.0 mm
12:32 67.5 °F /  19.7 °C 51.6 °F /  10.9 °C 30.1 in /  1017.5 hPa Calm   9 mph /  14.5 km/h 57 % 0 in /  0.0 mm
12:37 68 °F /  20.0 °C 52.2 °F /  11.2 °C 30.1 in /  1017.5 hPa Calm   8 mph /  12.9 km/h 57 % 0 in /  0.0 mm
12:42 69.1 °F /  20.6 °C 51.8 °F /  11.0 °C 30.1 in /  1017.5 hPa ESE 1 mph /  1.6 km/h 7 mph /  11.3 km/h 54 % 0 in /  0.0 mm
12:47 69.1 °F /  20.6 °C 51.8 °F /  11.0 °C 30.1 in /  1017.5 hPa SE 2 mph /  3.2 km/h 7 mph /  11.3 km/h 54 % 0 in /  0.0 mm
12:52 70.2 °F /  21.2 °C 51.8 °F /  11.0 °C 30 in /  1017.2 hPa South 2 mph /  3.2 km/h 7 mph /  11.3 km/h 52 % 0 in /  0.0 mm
12:57 70.3 °F /  21.3 °C 49.6 °F /  9.8 °C 30.1 in /  1017.5 hPa WSW 5 mph /  8.0 km/h 8 mph /  12.9 km/h 48 % 0 in /  0.0 mm
13:02 70 °F /  21.1 °C 50 °F /  10.0 °C 30 in /  1017.2 hPa SSW 2 mph /  3.2 km/h 8 mph /  12.9 km/h 49 % 0 in /  0.0 mm
13:07 69.6 °F /  20.9 °C 48.6 °F /  9.2 °C 30 in /  1017.2 hPa WSW 3 mph /  4.8 km/h 8 mph /  12.9 km/h 47 % 0 in /  0.0 mm
13:12 69.4 °F /  20.8 °C 49.5 °F /  9.7 °C 30 in /  1017.2 hPa South 4 mph /  6.4 km/h 8 mph /  12.9 km/h 49 % 0 in /  0.0 mm
13:17 69.3 °F /  20.7 °C 48.2 °F /  9.0 °C 30 in /  1017.2 hPa East 1 mph /  1.6 km/h 8 mph /  12.9 km/h 47 % 0 in /  0.0 mm
13:22 69.4 °F /  20.8 °C 48.9 °F /  9.4 °C 30 in /  1017.2 hPa Calm   7 mph /  11.3 km/h 48 % 0 in /  0.0 mm
13:27 70.2 °F /  21.2 °C 48.9 °F /  9.4 °C 30 in /  1016.8 hPa East 3 mph /  4.8 km/h 6 mph /  9.7 km/h 47 % 0 in /  0.0 mm
13:32 70 °F /  21.1 °C 49.5 °F /  9.7 °C 30 in /  1016.8 hPa SSW 3 mph /  4.8 km/h 7 mph /  11.3 km/h 48 % 0 in /  0.0 mm
13:37 70.2 °F /  21.2 °C 47.8 °F /  8.8 °C 30 in /  1016.8 hPa WSW 1 mph /  1.6 km/h 10 mph /  16.1 km/h 45 % 0 in /  0.0 mm
13:42 70.9 °F /  21.6 °C 49.1 °F /  9.5 °C 30 in /  1016.8 hPa West 1 mph /  1.6 km/h 10 mph /  16.1 km/h 46 % 0 in /  0.0 mm
13:47 72 °F /  22.2 °C 48.2 °F /  9.0 °C 30 in /  1016.5 hPa ESE 2 mph /  3.2 km/h 5 mph /  8.0 km/h 43 % 0 in /  0.0 mm
13:52 71.1 °F /  21.7 °C 47.5 °F /  8.6 °C 30 in /  1016.5 hPa South 6 mph /  9.7 km/h 7 mph /  11.3 km/h 43 % 0 in /  0.0 mm
13:57 71.2 °F /  21.8 °C 46.9 °F /  8.3 °C 30 in /  1016.5 hPa East 2 mph /  3.2 km/h 8 mph /  12.9 km/h 42 % 0 in /  0.0 mm
14:02 70.5 °F /  21.4 °C 45.7 °F /  7.6 °C 30 in /  1016.5 hPa Calm   8 mph /  12.9 km/h 41 % 0 in /  0.0 mm
14:07 70.5 °F /  21.4 °C 47.5 °F /  8.6 °C 30 in /  1016.5 hPa SSE 2 mph /  3.2 km/h 8 mph /  12.9 km/h 44 % 0 in /  0.0 mm
14:12 70.9 °F /  21.6 °C 47.3 °F /  8.5 °C 30 in /  1016.5 hPa SSW 7 mph /  11.3 km/h 7 mph /  11.3 km/h 43 % 0 in /  0.0 mm
14:17 70.3 °F /  21.3 °C 45.5 °F /  7.5 °C 30 in /  1016.5 hPa SW 5 mph /  8.0 km/h 9 mph /  14.5 km/h 41 % 0 in /  0.0 mm
14:22 70 °F /  21.1 °C 46.4 °F /  8.0 °C 30 in /  1016.1 hPa East 1 mph /  1.6 km/h 9 mph /  14.5 km/h 43 % 0 in /  0.0 mm
14:27 70.2 °F /  21.2 °C 46.6 °F /  8.1 °C 30 in /  1016.1 hPa SW 1 mph /  1.6 km/h 9 mph /  14.5 km/h 43 % 0 in /  0.0 mm
14:32 70.3 °F /  21.3 °C 46.8 °F /  8.2 °C 30 in /  1016.1 hPa WNW 2 mph /  3.2 km/h 9 mph /  14.5 km/h 43 % 0 in /  0.0 mm
14:37 70.9 °F /  21.6 °C 46.6 °F /  8.1 °C 30 in /  1016.1 hPa SSW 6 mph /  9.7 km/h 6 mph /  9.7 km/h 42 % 0 in /  0.0 mm
14:42 71.1 °F /  21.7 °C 46.2 °F /  7.9 °C 30 in /  1016.1 hPa Calm   7 mph /  11.3 km/h 41 % 0 in /  0.0 mm
14:47 71.4 °F /  21.9 °C 45.9 °F /  7.7 °C 30 in /  1016.1 hPa Calm   7 mph /  11.3 km/h 40 % 0 in /  0.0 mm
14:52 71.8 °F /  22.1 °C 47.5 °F /  8.6 °C 30 in /  1015.8 hPa SW 2 mph /  3.2 km/h 9 mph /  14.5 km/h 42 % 0 in /  0.0 mm
14:57 71.4 °F /  21.9 °C 44.4 °F /  6.9 °C 30 in /  1015.8 hPa SSW 2 mph /  3.2 km/h 9 mph /  14.5 km/h 38 % 0 in /  0.0 mm
15:02 70.7 °F /  21.5 °C 45.9 °F /  7.7 °C 30 in /  1015.8 hPa SW 4 mph /  6.4 km/h 10 mph /  16.1 km/h 41 % 0 in /  0.0 mm
15:07 71.1 °F /  21.7 °C 45.5 °F /  7.5 °C 30 in /  1015.8 hPa Calm   10 mph /  16.1 km/h 40 % 0 in /  0.0 mm
15:17 70.9 °F /  21.6 °C 46.6 °F /  8.1 °C 30 in /  1015.8 hPa SW 1 mph /  1.6 km/h 8 mph /  12.9 km/h 42 % 0 in /  0.0 mm
15:22 71.2 °F /  21.8 °C 46.9 °F /  8.3 °C 30 in /  1015.8 hPa SW 5 mph /  8.0 km/h 8 mph /  12.9 km/h 42 % 0 in /  0.0 mm
15:27 71.1 °F /  21.7 °C 46.2 °F /  7.9 °C 30 in /  1015.5 hPa WSW 9 mph /  14.5 km/h 9 mph /  14.5 km/h 41 % 0 in /  0.0 mm
15:32 70.5 °F /  21.4 °C 46.4 °F /  8.0 °C 30 in /  1015.5 hPa SSW 2 mph /  3.2 km/h 12 mph /  19.3 km/h 42 % 0 in /  0.0 mm
15:37 70.7 °F /  21.5 °C 46.4 °F /  8.0 °C 30 in /  1015.5 hPa Calm   12 mph /  19.3 km/h 42 % 0 in /  0.0 mm
15:42 71.2 °F /  21.8 °C 46.4 °F /  8.0 °C 30 in /  1015.5 hPa ENE 1 mph /  1.6 km/h 12 mph /  19.3 km/h 41 % 0 in /  0.0 mm
15:47 71.8 °F /  22.1 °C 46.2 °F /  7.9 °C 30 in /  1015.5 hPa SSE 2 mph /  3.2 km/h 6 mph /  9.7 km/h 40 % 0 in /  0.0 mm
15:57 71.8 °F /  22.1 °C 46.2 °F /  7.9 °C 30 in /  1015.1 hPa SSW 5 mph /  8.0 km/h 7 mph /  11.3 km/h 40 % 0 in /  0.0 mm
16:02 71.2 °F /  21.8 °C 45.7 °F /  7.6 °C 30 in /  1015.1 hPa SW 4 mph /  6.4 km/h 9 mph /  14.5 km/h 40 % 0 in /  0.0 mm
16:07 71.2 °F /  21.8 °C 46.4 °F /  8.0 °C 30 in /  1015.1 hPa WSW 2 mph /  3.2 km/h 9 mph /  14.5 km/h 41 % 0 in /  0.0 mm
16:12 71.2 °F /  21.8 °C 46.4 °F /  8.0 °C 30 in /  1015.1 hPa WSW 4 mph /  6.4 km/h 9 mph /  14.5 km/h 41 % 0 in /  0.0 mm
16:17 71.8 °F /  22.1 °C 46.8 °F /  8.2 °C 30 in /  1015.1 hPa West 4 mph /  6.4 km/h 8 mph /  12.9 km/h 41 % 0 in /  0.0 mm
16:22 71.8 °F /  22.1 °C 46.8 °F /  8.2 °C 30 in /  1014.8 hPa Calm   8 mph /  12.9 km/h 41 % 0 in /  0.0 mm
16:27 72.3 °F /  22.4 °C 46.6 °F /  8.1 °C 30 in /  1014.8 hPa NNW 3 mph /  4.8 km/h 8 mph /  12.9 km/h 40 % 0 in /  0.0 mm
16:32 72.3 °F /  22.4 °C 46.6 °F /  8.1 °C 30 in /  1014.8 hPa WSW 1 mph /  1.6 km/h 8 mph /  12.9 km/h 40 % 0 in /  0.0 mm
16:37 72.7 °F /  22.6 °C 47.7 °F /  8.7 °C 30 in /  1014.8 hPa SW 5 mph /  8.0 km/h 6 mph /  9.7 km/h 41 % 0 in /  0.0 mm
16:42 72.7 °F /  22.6 °C 46.9 °F /  8.3 °C 30 in /  1014.8 hPa SW 3 mph /  4.8 km/h 6 mph /  9.7 km/h 40 % 0 in /  0.0 mm
16:47 72.5 °F /  22.5 °C 46.2 °F /  7.9 °C 30 in /  1014.8 hPa WSW 4 mph /  6.4 km/h 7 mph /  11.3 km/h 39 % 0 in /  0.0 mm
16:52 71.6 °F /  22.0 °C 46.6 °F /  8.1 °C 30 in /  1014.8 hPa SSW 5 mph /  8.0 km/h 7 mph /  11.3 km/h 41 % 0 in /  0.0 mm
16:57 71.4 °F /  21.9 °C 45.9 °F /  7.7 °C 30 in /  1014.4 hPa West 2 mph /  3.2 km/h 7 mph /  11.3 km/h 40 % 0 in /  0.0 mm
17:02 71.2 °F /  21.8 °C 45.7 °F /  7.6 °C 30 in /  1014.4 hPa West 2 mph /  3.2 km/h 8 mph /  12.9 km/h 40 % 0 in /  0.0 mm
17:07 71.2 °F /  21.8 °C 45.7 °F /  7.6 °C 30 in /  1014.4 hPa WSW 2 mph /  3.2 km/h 9 mph /  14.5 km/h 40 % 0 in /  0.0 mm
17:12 71.8 °F /  22.1 °C 46.8 °F /  8.2 °C 30 in /  1014.4 hPa WNW 3 mph /  4.8 km/h 9 mph /  14.5 km/h 41 % 0 in /  0.0 mm
17:17 71.8 °F /  22.1 °C 46.2 °F /  7.9 °C 30 in /  1014.4 hPa Calm   7 mph /  11.3 km/h 40 % 0 in /  0.0 mm
17:22 72.3 °F /  22.4 °C 46.6 °F /  8.1 °C 30 in /  1014.4 hPa Calm   6 mph /  9.7 km/h 40 % 0 in /  0.0 mm
17:27 72.5 °F /  22.5 °C 46.2 °F /  7.9 °C 30 in /  1014.4 hPa WSW 2 mph /  3.2 km/h 5 mph /  8.0 km/h 39 % 0 in /  0.0 mm
17:32 71.8 °F /  22.1 °C 46.2 °F /  7.9 °C 30 in /  1014.4 hPa West 5 mph /  8.0 km/h 9 mph /  14.5 km/h 40 % 0 in /  0.0 mm
17:37 71.2 °F /  21.8 °C 45.7 °F /  7.6 °C 30 in /  1014.4 hPa WSW 4 mph /  6.4 km/h 11 mph /  17.7 km/h 40 % 0 in /  0.0 mm
17:42 71.1 °F /  21.7 °C 45.5 °F /  7.5 °C 30 in /  1014.4 hPa WSW 2 mph /  3.2 km/h 11 mph /  17.7 km/h 40 % 0 in /  0.0 mm
17:47 70.5 °F /  21.4 °C 45 °F /  7.2 °C 30 in /  1014.4 hPa West 7 mph /  11.3 km/h 9 mph /  14.5 km/h 40 % 0 in /  0.0 mm
17:57 70.3 °F /  21.3 °C 44.2 °F /  6.8 °C 30 in /  1014.4 hPa West 3 mph /  4.8 km/h 10 mph /  16.1 km/h 39 % 0 in /  0.0 mm
18:02 70.2 °F /  21.2 °C 44.1 °F /  6.7 °C 29.9 in /  1014.1 hPa WSW 5 mph /  8.0 km/h 10 mph /  16.1 km/h 39 % 0 in /  0.0 mm
18:07 70.3 °F /  21.3 °C 44.2 °F /  6.8 °C 29.9 in /  1014.1 hPa West 4 mph /  6.4 km/h 9 mph /  14.5 km/h 39 % 0 in /  0.0 mm
18:12 70.3 °F /  21.3 °C 44.2 °F /  6.8 °C 29.9 in /  1014.1 hPa SW 3 mph /  4.8 km/h 7 mph /  11.3 km/h 39 % 0 in /  0.0 mm
18:17 70.3 °F /  21.3 °C 44.2 °F /  6.8 °C 29.9 in /  1014.1 hPa SW 3 mph /  4.8 km/h 5 mph /  8.0 km/h 39 % 0 in /  0.0 mm
18:22 70.3 °F /  21.3 °C 44.2 °F /  6.8 °C 29.9 in /  1014.1 hPa West 3 mph /  4.8 km/h 8 mph /  12.9 km/h 39 % 0 in /  0.0 mm
18:27 70.2 °F /  21.2 °C 44.1 °F /  6.7 °C 29.9 in /  1014.1 hPa West 5 mph /  8.0 km/h 8 mph /  12.9 km/h 39 % 0 in /  0.0 mm
18:32 70.2 °F /  21.2 °C 44.1 °F /  6.7 °C 29.9 in /  1014.1 hPa WSW 5 mph /  8.0 km/h 8 mph /  12.9 km/h 39 % 0 in /  0.0 mm
18:42 70 °F /  21.1 °C 44.6 °F /  7.0 °C 29.9 in /  1014.1 hPa West 3 mph /  4.8 km/h 8 mph /  12.9 km/h 40 % 0 in /  0.0 mm
18:47 69.8 °F /  21.0 °C 44.4 °F /  6.9 °C 29.9 in /  1014.1 hPa WSW 2 mph /  3.2 km/h 8 mph /  12.9 km/h 40 % 0 in /  0.0 mm
18:52 69.6 °F /  20.9 °C 44.2 °F /  6.8 °C 29.9 in /  1014.1 hPa West 2 mph /  3.2 km/h 7 mph /  11.3 km/h 40 % 0 in /  0.0 mm
18:57 69.6 °F /  20.9 °C 43.5 °F /  6.4 °C 29.9 in /  1014.1 hPa SSW 2 mph /  3.2 km/h 6 mph /  9.7 km/h 39 % 0 in /  0.0 mm
19:02 69.4 °F /  20.8 °C 44.1 °F /  6.7 °C 29.9 in /  1014.1 hPa West 3 mph /  4.8 km/h 6 mph /  9.7 km/h 40 % 0 in /  0.0 mm
19:07 69.4 °F /  20.8 °C 44.8 °F /  7.1 °C 29.9 in /  1014.1 hPa West 1 mph /  1.6 km/h 5 mph /  8.0 km/h 41 % 0 in /  0.0 mm
19:12 69.3 °F /  20.7 °C 45.1 °F /  7.3 °C 29.9 in /  1014.1 hPa SW 1 mph /  1.6 km/h 5 mph /  8.0 km/h 42 % 0 in /  0.0 mm
19:17 69.3 °F /  20.7 °C 45.9 °F /  7.7 °C 29.9 in /  1014.1 hPa West 2 mph /  3.2 km/h 4 mph /  6.4 km/h 43 % 0 in /  0.0 mm
19:22 69.1 °F /  20.6 °C 45.7 °F /  7.6 °C 29.9 in /  1013.8 hPa WSW 1 mph /  1.6 km/h 4 mph /  6.4 km/h 43 % 0 in /  0.0 mm
19:27 69.1 °F /  20.6 °C 46.2 °F /  7.9 °C 29.9 in /  1013.8 hPa WSW 1 mph /  1.6 km/h 4 mph /  6.4 km/h 44 % 0 in /  0.0 mm
19:32 68.9 °F /  20.5 °C 46 °F /  7.8 °C 29.9 in /  1013.8 hPa WSW 1 mph /  1.6 km/h 3 mph /  4.8 km/h 44 % 0 in /  0.0 mm
19:37 68.7 °F /  20.4 °C 45.9 °F /  7.7 °C 29.9 in /  1013.8 hPa Calm   3 mph /  4.8 km/h 44 % 0 in /  0.0 mm
19:42 68.7 °F /  20.4 °C 47.1 °F /  8.4 °C 29.9 in /  1013.8 hPa Calm   2 mph /  3.2 km/h 46 % 0 in /  0.0 mm
19:47 68.7 °F /  20.4 °C 46.6 °F /  8.1 °C 29.9 in /  1013.8 hPa Calm   2 mph /  3.2 km/h 45 % 0 in /  0.0 mm
19:52 68.7 °F /  20.4 °C 46.6 °F /  8.1 °C 29.9 in /  1013.8 hPa Calm   1 mph /  1.6 km/h 45 % 0 in /  0.0 mm
19:57 68.5 °F /  20.3 °C 46.9 °F /  8.3 °C 29.9 in /  1013.8 hPa Calm   1 mph /  1.6 km/h 46 % 0 in /  0.0 mm
20:02 68.4 °F /  20.2 °C 47.3 °F /  8.5 °C 29.9 in /  1013.8 hPa Calm   1 mph /  1.6 km/h 47 % 0 in /  0.0 mm
20:07 68.2 °F /  20.1 °C 46.6 °F /  8.1 °C 29.9 in /  1013.8 hPa Calm     46 % 0 in /  0.0 mm
20:12 68.2 °F /  20.1 °C 46 °F /  7.8 °C 29.9 in /  1013.8 hPa Calm     45 % 0 in /  0.0 mm
20:17 68.2 °F /  20.1 °C 47.7 °F /  8.7 °C 29.9 in /  1013.8 hPa Calm     48 % 0 in /  0.0 mm
20:22 67.6 °F /  19.8 °C 47.3 °F /  8.5 °C 29.9 in /  1013.8 hPa Calm     48 % 0 in /  0.0 mm
20:27 67.6 °F /  19.8 °C 46 °F /  7.8 °C 29.9 in /  1013.8 hPa Calm     46 % 0 in /  0.0 mm
20:32 67.6 °F /  19.8 °C 47.3 °F /  8.5 °C 29.9 in /  1013.8 hPa Calm     48 % 0 in /  0.0 mm
20:37 67.3 °F /  19.6 °C 47.5 °F /  8.6 °C 29.9 in /  1013.8 hPa Calm     49 % 0 in /  0.0 mm
20:42 66.7 °F /  19.3 °C 48 °F /  8.9 °C 29.9 in /  1013.8 hPa Calm     51 % 0 in /  0.0 mm
20:47 66.6 °F /  19.2 °C 48.9 °F /  9.4 °C 29.9 in /  1014.1 hPa Calm     53 % 0 in /  0.0 mm
20:52 66 °F /  18.9 °C 48.9 °F /  9.4 °C 29.9 in /  1014.1 hPa Calm     54 % 0 in /  0.0 mm
20:57 65.8 °F /  18.8 °C 48.7 °F /  9.3 °C 29.9 in /  1014.1 hPa Calm     54 % 0 in /  0.0 mm
21:02 65.5 °F /  18.6 °C 48.9 °F /  9.4 °C 29.9 in /  1014.1 hPa Calm     55 % 0 in /  0.0 mm
21:07 65.3 °F /  18.5 °C 47.7 °F /  8.7 °C 29.9 in /  1014.1 hPa Calm     53 % 0 in /  0.0 mm
21:12 65.3 °F /  18.5 °C 48.2 °F /  9.0 °C 30 in /  1014.4 hPa Calm     54 % 0 in /  0.0 mm
21:17 64.9 °F /  18.3 °C 48.4 °F /  9.1 °C 30 in /  1014.4 hPa Calm     55 % 0 in /  0.0 mm
21:22 64.8 °F /  18.2 °C 48.7 °F /  9.3 °C 30 in /  1014.4 hPa Calm     56 % 0 in /  0.0 mm
21:27 64.4 °F /  18.0 °C 48.9 °F /  9.4 °C 30 in /  1014.4 hPa Calm     57 % 0 in /  0.0 mm
21:32 64.4 °F /  18.0 °C 47.8 °F /  8.8 °C 30 in /  1014.4 hPa Calm     55 % 0 in /  0.0 mm
21:37 64.6 °F /  18.1 °C 47.1 °F /  8.4 °C 30 in /  1014.4 hPa Calm     53 % 0 in /  0.0 mm
21:42 64.9 °F /  18.3 °C 47.5 °F /  8.6 °C 30 in /  1014.4 hPa Calm     53 % 0 in /  0.0 mm
21:47 64.9 °F /  18.3 °C 48.9 °F /  9.4 °C 30 in /  1014.4 hPa Calm     56 % 0 in /  0.0 mm
21:52 64.8 °F /  18.2 °C 48.7 °F /  9.3 °C 30 in /  1014.4 hPa Calm     56 % 0 in /  0.0 mm
22:02 64.6 °F /  18.1 °C 48.6 °F /  9.2 °C 30 in /  1014.4 hPa Calm     56 % 0 in /  0.0 mm
22:07 64.6 °F /  18.1 °C 48.9 °F /  9.4 °C 30 in /  1014.4 hPa Calm     57 % 0 in /  0.0 mm
22:12 64.6 °F /  18.1 °C 48.9 °F /  9.4 °C 30 in /  1014.4 hPa Calm     57 % 0 in /  0.0 mm
22:17 64.6 °F /  18.1 °C 49.5 °F /  9.7 °C 30 in /  1014.4 hPa ESE 1 mph /  1.6 km/h   58 % 0 in /  0.0 mm
22:22 64.4 °F /  18.0 °C 49.8 °F /  9.9 °C 30 in /  1014.4 hPa Calm   2 mph /  3.2 km/h 59 % 0 in /  0.0 mm
22:27 64.2 °F /  17.9 °C 50 °F /  10.0 °C 30 in /  1014.4 hPa Calm   2 mph /  3.2 km/h 60 % 0 in /  0.0 mm
22:37 64 °F /  17.8 °C 50.4 °F /  10.2 °C 30 in /  1014.4 hPa Calm   2 mph /  3.2 km/h 61 % 0 in /  0.0 mm
22:42 64 °F /  17.8 °C 50.4 °F /  10.2 °C 30 in /  1014.4 hPa SSW 1 mph /  1.6 km/h 2 mph /  3.2 km/h 61 % 0 in /  0.0 mm
22:47 64 °F /  17.8 °C 50.4 °F /  10.2 °C 30 in /  1014.4 hPa SSW 1 mph /  1.6 km/h 3 mph /  4.8 km/h 61 % 0 in /  0.0 mm
22:52 64 °F /  17.8 °C 50.4 °F /  10.2 °C 30 in /  1014.4 hPa South 1 mph /  1.6 km/h 3 mph /  4.8 km/h 61 % 0 in /  0.0 mm
22:57 63.9 °F /  17.7 °C 50.2 °F /  10.1 °C 30 in /  1014.4 hPa SSE 2 mph /  3.2 km/h 3 mph /  4.8 km/h 61 % 0 in /  0.0 mm
23:02 63.9 °F /  17.7 °C 50.2 °F /  10.1 °C 30 in /  1014.4 hPa Calm   2 mph /  3.2 km/h 61 % 0 in /  0.0 mm
23:07 63.9 °F /  17.7 °C 50.2 °F /  10.1 °C 30 in /  1014.4 hPa Calm   2 mph /  3.2 km/h 61 % 0 in /  0.0 mm
23:12 63.7 °F /  17.6 °C 50 °F /  10.0 °C 30 in /  1014.4 hPa South 1 mph /  1.6 km/h 3 mph /  4.8 km/h 61 % 0 in /  0.0 mm
23:17 63.7 °F /  17.6 °C 50.9 °F /  10.5 °C 30 in /  1014.4 hPa Calm   4 mph /  6.4 km/h 63 % 0 in /  0.0 mm
23:22 63.3 °F /  17.4 °C 50.9 °F /  10.5 °C 30 in /  1014.4 hPa Calm   4 mph /  6.4 km/h 64 % 0 in /  0.0 mm
23:27 63.1 °F /  17.3 °C 51.3 °F /  10.7 °C 30 in /  1014.4 hPa SSW 1 mph /  1.6 km/h 3 mph /  4.8 km/h 65 % 0 in /  0.0 mm
23:32 62.8 °F /  17.1 °C 51.6 °F /  10.9 °C 30 in /  1014.4 hPa Calm   3 mph /  4.8 km/h 67 % 0 in /  0.0 mm
23:37 62.2 °F /  16.8 °C 52 °F /  11.1 °C 30 in /  1014.4 hPa Calm   3 mph /  4.8 km/h 69 % 0 in /  0.0 mm
23:42 61.9 °F /  16.6 °C 51.6 °F /  10.9 °C 30 in /  1014.4 hPa Calm   3 mph /  4.8 km/h 69 % 0 in /  0.0 mm
23:47 61.9 °F /  16.6 °C 52.3 °F /  11.3 °C 30 in /  1014.4 hPa Calm   1 mph /  1.6 km/h 71 % 0 in /  0.0 mm
23:52 61.7 °F /  16.5 °C 52.2 °F /  11.2 °C 30 in /  1014.4 hPa Calm   1 mph /  1.6 km/h 71 % 0 in /  0.0 mm
23:57 61.5 °F /  16.4 °C 52.7 °F /  11.5 °C 30 in /  1014.4 hPa Calm   1 mph /  1.6 km/h 73 % 0 in /  0.0 mm
Meteo18
Compliments of Weather Underground - 4 mb

Script developed by  Jim McMurry - jmcmurry@mwt.net Adapted for the template by  Wim van der Kuil - Leuven-Template.eu

You find our weather info also at:

European Weather Network

Weather Underground

Equipment we use:

Weather-station
Davis Vue

Weather-program
Meteohub

Weather-server
Raspberry PI 2 B+

Provider
1 and 1

Davis Vue

Meteohub

Raspberry PI 2 B+

1 and 1